sensor_id;sensor_type;location;lat;lon;timestamp;P1;durP1;ratioP1;P2;durP2;ratioP2
54539;SDS011;40438;52.992;18.604;2023-03-31T00:02:08;6.13;;;4.00;;
54539;SDS011;40438;52.992;18.604;2023-03-31T00:04:34;6.72;;;4.15;;
54539;SDS011;40438;52.992;18.604;2023-03-31T00:06:59;6.07;;;3.83;;
54539;SDS011;40438;52.992;18.604;2023-03-31T00:09:27;8.20;;;4.40;;
54539;SDS011;40438;52.992;18.604;2023-03-31T00:11:53;7.07;;;4.72;;
54539;SDS011;40438;52.992;18.604;2023-03-31T00:14:19;8.40;;;4.50;;
54539;SDS011;40438;52.992;18.604;2023-03-31T00:16:45;6.72;;;3.65;;
54539;SDS011;40438;52.992;18.604;2023-03-31T00:19:11;6.45;;;3.80;;
54539;SDS011;40438;52.992;18.604;2023-03-31T00:21:38;6.43;;;3.70;;
54539;SDS011;40438;52.992;18.604;2023-03-31T00:24:04;6.40;;;3.67;;
54539;SDS011;40438;52.992;18.604;2023-03-31T00:26:32;6.45;;;3.97;;
54539;SDS011;40438;52.992;18.604;2023-03-31T00:28:59;8.07;;;4.07;;
54539;SDS011;40438;52.992;18.604;2023-03-31T00:31:25;6.68;;;4.03;;
54539;SDS011;40438;52.992;18.604;2023-03-31T00:33:52;4.85;;;3.63;;
54539;SDS011;40438;52.992;18.604;2023-03-31T00:36:19;5.47;;;3.72;;
54539;SDS011;40438;52.992;18.604;2023-03-31T00:38:44;6.80;;;3.30;;
54539;SDS011;40438;52.992;18.604;2023-03-31T00:41:11;5.20;;;3.60;;
54539;SDS011;40438;52.992;18.604;2023-03-31T00:43:38;7.82;;;3.83;;
54539;SDS011;40438;52.992;18.604;2023-03-31T00:46:06;4.57;;;3.30;;
54539;SDS011;40438;52.992;18.604;2023-03-31T00:48:40;5.78;;;3.65;;
54539;SDS011;40438;52.992;18.604;2023-03-31T00:51:12;5.82;;;3.67;;
54539;SDS011;40438;52.992;18.604;2023-03-31T00:53:38;5.20;;;3.33;;
54539;SDS011;40438;52.992;18.604;2023-03-31T00:56:06;7.95;;;4.22;;
54539;SDS011;40438;52.992;18.604;2023-03-31T00:58:38;5.97;;;3.30;;
54539;SDS011;40438;52.992;18.604;2023-03-31T01:01:05;5.47;;;3.42;;
54539;SDS011;40438;52.992;18.604;2023-03-31T01:03:31;4.43;;;3.65;;
54539;SDS011;40438;52.992;18.604;2023-03-31T01:05:58;6.90;;;3.50;;
54539;SDS011;40438;52.992;18.604;2023-03-31T01:08:25;5.10;;;3.13;;
54539;SDS011;40438;52.992;18.604;2023-03-31T01:10:53;4.75;;;3.38;;
54539;SDS011;40438;52.992;18.604;2023-03-31T01:13:20;4.97;;;3.45;;
54539;SDS011;40438;52.992;18.604;2023-03-31T01:15:48;4.47;;;3.17;;
54539;SDS011;40438;52.992;18.604;2023-03-31T01:18:14;5.18;;;2.85;;
54539;SDS011;40438;52.992;18.604;2023-03-31T01:20:44;4.97;;;3.22;;
54539;SDS011;40438;52.992;18.604;2023-03-31T01:23:47;4.70;;;3.08;;
54539;SDS011;40438;52.992;18.604;2023-03-31T01:26:39;5.93;;;2.95;;
54539;SDS011;40438;52.992;18.604;2023-03-31T01:29:26;4.55;;;3.05;;
54539;SDS011;40438;52.992;18.604;2023-03-31T01:32:17;4.22;;;2.97;;
54539;SDS011;40438;52.992;18.604;2023-03-31T01:38:13;4.72;;;3.17;;
54539;SDS011;40438;52.992;18.604;2023-03-31T01:41:02;4.95;;;3.17;;
54539;SDS011;40438;52.992;18.604;2023-03-31T01:43:45;4.40;;;2.67;;
54539;SDS011;40438;52.992;18.604;2023-03-31T01:46:19;6.00;;;3.10;;
54539;SDS011;40438;52.992;18.604;2023-03-31T01:48:53;6.15;;;3.13;;
54539;SDS011;40438;52.992;18.604;2023-03-31T01:51:27;6.50;;;3.45;;
54539;SDS011;40438;52.992;18.604;2023-03-31T01:54:00;4.05;;;3.15;;
54539;SDS011;40438;52.992;18.604;2023-03-31T01:56:34;5.50;;;2.92;;
54539;SDS011;40438;52.992;18.604;2023-03-31T01:59:04;5.13;;;3.00;;
54539;SDS011;40438;52.992;18.604;2023-03-31T02:01:36;5.07;;;3.00;;
54539;SDS011;40438;52.992;18.604;2023-03-31T02:04:08;3.85;;;2.95;;
54539;SDS011;40438;52.992;18.604;2023-03-31T02:06:39;6.10;;;3.10;;
54539;SDS011;40438;52.992;18.604;2023-03-31T02:09:09;5.00;;;2.80;;
54539;SDS011;40438;52.992;18.604;2023-03-31T02:11:40;4.70;;;3.45;;
54539;SDS011;40438;52.992;18.604;2023-03-31T02:14:08;5.55;;;3.00;;
54539;SDS011;40438;52.992;18.604;2023-03-31T02:16:38;6.00;;;3.17;;
54539;SDS011;40438;52.992;18.604;2023-03-31T02:19:06;4.25;;;2.55;;
54539;SDS011;40438;52.992;18.604;2023-03-31T02:21:35;4.43;;;2.88;;
54539;SDS011;40438;52.992;18.604;2023-03-31T02:24:05;3.58;;;2.63;;
54539;SDS011;40438;52.992;18.604;2023-03-31T02:26:36;5.18;;;3.20;;
54539;SDS011;40438;52.992;18.604;2023-03-31T02:29:06;4.22;;;3.05;;
54539;SDS011;40438;52.992;18.604;2023-03-31T02:31:35;5.07;;;2.97;;
54539;SDS011;40438;52.992;18.604;2023-03-31T02:34:10;7.20;;;3.15;;
54539;SDS011;40438;52.992;18.604;2023-03-31T02:36:36;4.03;;;2.75;;
54539;SDS011;40438;52.992;18.604;2023-03-31T02:39:03;6.60;;;3.25;;
54539;SDS011;40438;52.992;18.604;2023-03-31T02:41:31;3.83;;;2.65;;
54539;SDS011;40438;52.992;18.604;2023-03-31T02:43:58;5.05;;;2.50;;
54539;SDS011;40438;52.992;18.604;2023-03-31T02:46:24;4.03;;;2.80;;
54539;SDS011;40438;52.992;18.604;2023-03-31T02:48:52;3.92;;;2.95;;
54539;SDS011;40438;52.992;18.604;2023-03-31T02:54:42;3.45;;;2.58;;
54539;SDS011;40438;52.992;18.604;2023-03-31T02:57:36;3.53;;;2.35;;
54539;SDS011;40438;52.992;18.604;2023-03-31T03:00:25;3.83;;;2.60;;
54539;SDS011;40438;52.992;18.604;2023-03-31T03:03:06;4.90;;;3.13;;
54539;SDS011;40438;52.992;18.604;2023-03-31T03:05:47;4.75;;;2.80;;
54539;SDS011;40438;52.992;18.604;2023-03-31T03:08:55;3.60;;;2.35;;
54539;SDS011;40438;52.992;18.604;2023-03-31T03:11:30;3.20;;;2.63;;
54539;SDS011;40438;52.992;18.604;2023-03-31T03:14:04;3.35;;;2.70;;
54539;SDS011;40438;52.992;18.604;2023-03-31T03:16:39;3.67;;;2.40;;
54539;SDS011;40438;52.992;18.604;2023-03-31T03:19:07;4.45;;;2.63;;
54539;SDS011;40438;52.992;18.604;2023-03-31T03:21:34;3.95;;;2.83;;
54539;SDS011;40438;52.992;18.604;2023-03-31T03:24:00;2.47;;;2.10;;
54539;SDS011;40438;52.992;18.604;2023-03-31T03:26:26;3.40;;;2.30;;
54539;SDS011;40438;52.992;18.604;2023-03-31T03:28:52;2.70;;;2.40;;
54539;SDS011;40438;52.992;18.604;2023-03-31T03:31:19;4.85;;;2.30;;
54539;SDS011;40438;52.992;18.604;2023-03-31T03:33:46;3.95;;;2.20;;
54539;SDS011;40438;52.992;18.604;2023-03-31T03:36:11;2.72;;;2.22;;
54539;SDS011;40438;52.992;18.604;2023-03-31T03:38:37;3.00;;;2.20;;
54539;SDS011;40438;52.992;18.604;2023-03-31T03:41:03;3.80;;;2.33;;
54539;SDS011;40438;52.992;18.604;2023-03-31T03:43:29;3.58;;;2.50;;
54539;SDS011;40438;52.992;18.604;2023-03-31T03:45:55;2.75;;;2.13;;
54539;SDS011;40438;52.992;18.604;2023-03-31T03:48:21;3.72;;;2.00;;
54539;SDS011;40438;52.992;18.604;2023-03-31T03:50:48;2.55;;;2.00;;
54539;SDS011;40438;52.992;18.604;2023-03-31T03:53:14;3.40;;;1.98;;
54539;SDS011;40438;52.992;18.604;2023-03-31T03:55:40;2.67;;;2.20;;
54539;SDS011;40438;52.992;18.604;2023-03-31T03:58:06;2.75;;;2.10;;
54539;SDS011;40438;52.992;18.604;2023-03-31T04:00:32;2.97;;;2.22;;
54539;SDS011;40438;52.992;18.604;2023-03-31T04:02:58;4.53;;;2.47;;
54539;SDS011;40438;52.992;18.604;2023-03-31T04:05:24;3.05;;;2.22;;
54539;SDS011;40438;52.992;18.604;2023-03-31T04:07:51;2.50;;;2.10;;
54539;SDS011;40438;52.992;18.604;2023-03-31T04:10:17;2.35;;;1.75;;
54539;SDS011;40438;52.992;18.604;2023-03-31T04:12:42;3.25;;;1.70;;
54539;SDS011;40438;52.992;18.604;2023-03-31T04:15:08;3.55;;;2.20;;
54539;SDS011;40438;52.992;18.604;2023-03-31T04:17:35;3.30;;;2.00;;
54539;SDS011;40438;52.992;18.604;2023-03-31T04:20:01;3.72;;;2.17;;
54539;SDS011;40438;52.992;18.604;2023-03-31T04:22:28;3.83;;;2.00;;
54539;SDS011;40438;52.992;18.604;2023-03-31T04:24:55;3.28;;;1.90;;
54539;SDS011;40438;52.992;18.604;2023-03-31T04:27:21;4.07;;;1.75;;
54539;SDS011;40438;52.992;18.604;2023-03-31T04:29:47;2.83;;;1.92;;
54539;SDS011;40438;52.992;18.604;2023-03-31T04:32:12;6.57;;;2.00;;
54539;SDS011;40438;52.992;18.604;2023-03-31T04:34:38;3.75;;;2.45;;
54539;SDS011;40438;52.992;18.604;2023-03-31T04:37:04;4.28;;;2.03;;
54539;SDS011;40438;52.992;18.604;2023-03-31T04:39:30;2.63;;;2.13;;
54539;SDS011;40438;52.992;18.604;2023-03-31T04:41:57;4.63;;;1.90;;
54539;SDS011;40438;52.992;18.604;2023-03-31T04:44:24;3.45;;;1.98;;
54539;SDS011;40438;52.992;18.604;2023-03-31T04:46:50;3.47;;;1.80;;
54539;SDS011;40438;52.992;18.604;2023-03-31T04:49:16;3.30;;;2.03;;
54539;SDS011;40438;52.992;18.604;2023-03-31T04:51:41;2.35;;;1.63;;
54539;SDS011;40438;52.992;18.604;2023-03-31T04:54:07;4.20;;;2.05;;
54539;SDS011;40438;52.992;18.604;2023-03-31T04:56:33;4.05;;;1.92;;
54539;SDS011;40438;52.992;18.604;2023-03-31T04:59:00;8.07;;;1.85;;
54539;SDS011;40438;52.992;18.604;2023-03-31T05:01:26;3.50;;;1.83;;
54539;SDS011;40438;52.992;18.604;2023-03-31T05:03:52;2.60;;;1.70;;
54539;SDS011;40438;52.992;18.604;2023-03-31T05:06:17;4.22;;;2.30;;
54539;SDS011;40438;52.992;18.604;2023-03-31T05:08:43;3.20;;;2.00;;
54539;SDS011;40438;52.992;18.604;2023-03-31T05:11:09;2.85;;;1.77;;
54539;SDS011;40438;52.992;18.604;2023-03-31T05:13:35;4.18;;;2.05;;
54539;SDS011;40438;52.992;18.604;2023-03-31T05:16:06;3.33;;;1.90;;
54539;SDS011;40438;52.992;18.604;2023-03-31T05:18:33;3.33;;;1.95;;
54539;SDS011;40438;52.992;18.604;2023-03-31T05:21:06;3.25;;;1.90;;
54539;SDS011;40438;52.992;18.604;2023-03-31T05:23:33;2.90;;;1.67;;
54539;SDS011;40438;52.992;18.604;2023-03-31T05:25:59;3.13;;;1.63;;
54539;SDS011;40438;52.992;18.604;2023-03-31T05:28:25;2.63;;;1.85;;
54539;SDS011;40438;52.992;18.604;2023-03-31T05:30:50;1.77;;;1.50;;
54539;SDS011;40438;52.992;18.604;2023-03-31T05:33:18;2.55;;;1.73;;
54539;SDS011;40438;52.992;18.604;2023-03-31T05:35:43;3.42;;;1.83;;
54539;SDS011;40438;52.992;18.604;2023-03-31T05:38:09;3.15;;;1.85;;
54539;SDS011;40438;52.992;18.604;2023-03-31T05:40:35;3.00;;;2.13;;
54539;SDS011;40438;52.992;18.604;2023-03-31T05:43:00;4.00;;;1.80;;
54539;SDS011;40438;52.992;18.604;2023-03-31T05:45:26;2.83;;;1.92;;
54539;SDS011;40438;52.992;18.604;2023-03-31T05:47:52;2.83;;;1.67;;
54539;SDS011;40438;52.992;18.604;2023-03-31T05:50:19;3.35;;;1.52;;
54539;SDS011;40438;52.992;18.604;2023-03-31T05:52:45;6.63;;;1.67;;
54539;SDS011;40438;52.992;18.604;2023-03-31T05:55:11;4.18;;;1.92;;
54539;SDS011;40438;52.992;18.604;2023-03-31T05:57:36;4.43;;;1.70;;
54539;SDS011;40438;52.992;18.604;2023-03-31T06:00:03;5.00;;;1.70;;
54539;SDS011;40438;52.992;18.604;2023-03-31T06:02:29;2.80;;;1.63;;
54539;SDS011;40438;52.992;18.604;2023-03-31T06:04:56;2.75;;;1.80;;
54539;SDS011;40438;52.992;18.604;2023-03-31T06:07:24;3.80;;;1.85;;
54539;SDS011;40438;52.992;18.604;2023-03-31T06:09:50;2.30;;;1.80;;
54539;SDS011;40438;52.992;18.604;2023-03-31T06:12:15;2.38;;;1.70;;
54539;SDS011;40438;52.992;18.604;2023-03-31T06:14:41;2.97;;;1.60;;
54539;SDS011;40438;52.992;18.604;2023-03-31T06:17:07;3.20;;;1.70;;
54539;SDS011;40438;52.992;18.604;2023-03-31T06:19:33;3.28;;;1.60;;
54539;SDS011;40438;52.992;18.604;2023-03-31T06:21:58;3.25;;;1.55;;
54539;SDS011;40438;52.992;18.604;2023-03-31T06:24:26;6.75;;;2.17;;
54539;SDS011;40438;52.992;18.604;2023-03-31T06:26:51;3.30;;;1.75;;
54539;SDS011;40438;52.992;18.604;2023-03-31T06:29:17;2.30;;;1.50;;
54539;SDS011;40438;52.992;18.604;2023-03-31T06:31:43;5.03;;;1.70;;
54539;SDS011;40438;52.992;18.604;2023-03-31T06:34:09;2.15;;;1.65;;
54539;SDS011;40438;52.992;18.604;2023-03-31T06:36:35;2.55;;;1.48;;
54539;SDS011;40438;52.992;18.604;2023-03-31T06:39:00;3.20;;;1.48;;
54539;SDS011;40438;52.992;18.604;2023-03-31T06:41:27;3.95;;;1.60;;
54539;SDS011;40438;52.992;18.604;2023-03-31T06:43:53;3.25;;;1.90;;
54539;SDS011;40438;52.992;18.604;2023-03-31T06:46:19;4.50;;;1.83;;
54539;SDS011;40438;52.992;18.604;2023-03-31T06:48:45;5.43;;;1.58;;
54539;SDS011;40438;52.992;18.604;2023-03-31T06:51:11;3.22;;;1.85;;
54539;SDS011;40438;52.992;18.604;2023-03-31T06:53:37;3.25;;;1.50;;
54539;SDS011;40438;52.992;18.604;2023-03-31T06:56:03;3.08;;;1.80;;
54539;SDS011;40438;52.992;18.604;2023-03-31T06:58:31;2.80;;;2.05;;
54539;SDS011;40438;52.992;18.604;2023-03-31T07:00:57;4.97;;;2.20;;
54539;SDS011;40438;52.992;18.604;2023-03-31T07:03:23;6.20;;;1.90;;
54539;SDS011;40438;52.992;18.604;2023-03-31T07:05:50;3.97;;;1.83;;
54539;SDS011;40438;52.992;18.604;2023-03-31T07:08:17;2.75;;;1.70;;
54539;SDS011;40438;52.992;18.604;2023-03-31T07:10:43;3.67;;;1.90;;
54539;SDS011;40438;52.992;18.604;2023-03-31T07:13:09;2.50;;;2.00;;
54539;SDS011;40438;52.992;18.604;2023-03-31T07:15:37;7.10;;;2.10;;
54539;SDS011;40438;52.992;18.604;2023-03-31T07:18:02;8.57;;;1.83;;
54539;SDS011;40438;52.992;18.604;2023-03-31T07:20:28;3.40;;;1.77;;
54539;SDS011;40438;52.992;18.604;2023-03-31T07:22:54;4.82;;;1.80;;
54539;SDS011;40438;52.992;18.604;2023-03-31T07:25:21;4.82;;;2.30;;
54539;SDS011;40438;52.992;18.604;2023-03-31T07:27:47;4.28;;;1.77;;
54539;SDS011;40438;52.992;18.604;2023-03-31T07:30:13;3.28;;;1.63;;
54539;SDS011;40438;52.992;18.604;2023-03-31T07:32:42;6.05;;;1.85;;
54539;SDS011;40438;52.992;18.604;2023-03-31T07:35:10;5.35;;;1.90;;
54539;SDS011;40438;52.992;18.604;2023-03-31T07:37:36;4.18;;;1.80;;
54539;SDS011;40438;52.992;18.604;2023-03-31T07:40:02;3.50;;;1.83;;
54539;SDS011;40438;52.992;18.604;2023-03-31T07:42:28;5.28;;;2.03;;
54539;SDS011;40438;52.992;18.604;2023-03-31T07:44:54;3.72;;;2.20;;
54539;SDS011;40438;52.992;18.604;2023-03-31T07:47:20;4.85;;;2.10;;
54539;SDS011;40438;52.992;18.604;2023-03-31T07:49:47;3.88;;;1.73;;
54539;SDS011;40438;52.992;18.604;2023-03-31T07:52:13;3.72;;;1.50;;
54539;SDS011;40438;52.992;18.604;2023-03-31T07:54:39;4.82;;;2.42;;
54539;SDS011;40438;52.992;18.604;2023-03-31T07:57:05;2.88;;;1.50;;
54539;SDS011;40438;52.992;18.604;2023-03-31T07:59:30;3.35;;;1.63;;
54539;SDS011;40438;52.992;18.604;2023-03-31T08:01:56;5.95;;;2.33;;
54539;SDS011;40438;52.992;18.604;2023-03-31T08:04:22;4.85;;;1.75;;
54539;SDS011;40438;52.992;18.604;2023-03-31T08:06:49;11.48;;;2.38;;
54539;SDS011;40438;52.992;18.604;2023-03-31T08:09:15;7.28;;;1.80;;
54539;SDS011;40438;52.992;18.604;2023-03-31T08:11:41;6.20;;;1.88;;
54539;SDS011;40438;52.992;18.604;2023-03-31T08:14:07;4.57;;;1.85;;
54539;SDS011;40438;52.992;18.604;2023-03-31T08:16:32;4.93;;;2.10;;
54539;SDS011;40438;52.992;18.604;2023-03-31T08:18:58;8.55;;;2.08;;
54539;SDS011;40438;52.992;18.604;2023-03-31T08:21:24;9.80;;;2.28;;
54539;SDS011;40438;52.992;18.604;2023-03-31T08:23:53;6.20;;;2.40;;
54539;SDS011;40438;52.992;18.604;2023-03-31T08:26:19;4.55;;;1.65;;
54539;SDS011;40438;52.992;18.604;2023-03-31T08:28:44;5.22;;;2.50;;
54539;SDS011;40438;52.992;18.604;2023-03-31T08:31:11;3.90;;;2.38;;
54539;SDS011;40438;52.992;18.604;2023-03-31T08:33:36;9.15;;;2.08;;
54539;SDS011;40438;52.992;18.604;2023-03-31T08:36:02;9.85;;;1.98;;
54539;SDS011;40438;52.992;18.604;2023-03-31T08:38:29;8.68;;;2.25;;
54539;SDS011;40438;52.992;18.604;2023-03-31T08:40:59;9.98;;;2.00;;
54539;SDS011;40438;52.992;18.604;2023-03-31T08:43:26;4.30;;;1.70;;
54539;SDS011;40438;52.992;18.604;2023-03-31T08:45:57;8.75;;;1.90;;
54539;SDS011;40438;52.992;18.604;2023-03-31T08:48:24;8.05;;;2.00;;
54539;SDS011;40438;52.992;18.604;2023-03-31T08:50:54;4.63;;;1.70;;
54539;SDS011;40438;52.992;18.604;2023-03-31T08:53:24;4.05;;;1.92;;
54539;SDS011;40438;52.992;18.604;2023-03-31T08:55:53;6.28;;;1.80;;
54539;SDS011;40438;52.992;18.604;2023-03-31T08:58:26;10.60;;;2.08;;
54539;SDS011;40438;52.992;18.604;2023-03-31T09:00:59;9.52;;;2.30;;
54539;SDS011;40438;52.992;18.604;2023-03-31T09:03:30;11.20;;;2.50;;
54539;SDS011;40438;52.992;18.604;2023-03-31T09:06:01;17.63;;;3.10;;
54539;SDS011;40438;52.992;18.604;2023-03-31T09:08:33;6.38;;;2.40;;
54539;SDS011;40438;52.992;18.604;2023-03-31T09:11:06;17.83;;;2.92;;
54539;SDS011;40438;52.992;18.604;2023-03-31T09:13:40;12.13;;;3.70;;
54539;SDS011;40438;52.992;18.604;2023-03-31T09:16:19;10.10;;;2.38;;
54539;SDS011;40438;52.992;18.604;2023-03-31T09:18:48;16.75;;;2.92;;
54539;SDS011;40438;52.992;18.604;2023-03-31T09:21:17;19.13;;;3.50;;
54539;SDS011;40438;52.992;18.604;2023-03-31T09:23:47;11.55;;;3.65;;
54539;SDS011;40438;52.992;18.604;2023-03-31T09:26:20;18.95;;;4.20;;
54539;SDS011;40438;52.992;18.604;2023-03-31T09:28:52;12.40;;;3.50;;
54539;SDS011;40438;52.992;18.604;2023-03-31T09:31:20;10.90;;;3.83;;
54539;SDS011;40438;52.992;18.604;2023-03-31T09:33:47;20.52;;;3.67;;
54539;SDS011;40438;52.992;18.604;2023-03-31T09:36:17;15.65;;;3.38;;
54539;SDS011;40438;52.992;18.604;2023-03-31T09:38:45;10.73;;;3.97;;
54539;SDS011;40438;52.992;18.604;2023-03-31T09:41:11;9.82;;;3.22;;
54539;SDS011;40438;52.992;18.604;2023-03-31T09:43:39;8.75;;;3.50;;
54539;SDS011;40438;52.992;18.604;2023-03-31T09:46:09;11.13;;;3.38;;
54539;SDS011;40438;52.992;18.604;2023-03-31T09:48:40;11.40;;;3.25;;
54539;SDS011;40438;52.992;18.604;2023-03-31T09:51:13;10.55;;;3.05;;
54539;SDS011;40438;52.992;18.604;2023-03-31T09:53:44;8.88;;;2.88;;
54539;SDS011;40438;52.992;18.604;2023-03-31T09:56:13;8.85;;;3.00;;
54539;SDS011;40438;52.992;18.604;2023-03-31T09:58:58;11.55;;;3.67;;
54539;SDS011;40438;52.992;18.604;2023-03-31T10:01:27;9.77;;;3.33;;
54539;SDS011;40438;52.992;18.604;2023-03-31T10:03:54;7.97;;;3.38;;
54539;SDS011;40438;52.992;18.604;2023-03-31T10:06:20;11.70;;;3.28;;
54539;SDS011;40438;52.992;18.604;2023-03-31T10:08:48;8.93;;;3.15;;
54539;SDS011;40438;52.992;18.604;2023-03-31T10:11:15;11.82;;;3.13;;
54539;SDS011;40438;52.992;18.604;2023-03-31T10:13:43;5.50;;;3.22;;
54539;SDS011;40438;52.992;18.604;2023-03-31T10:16:12;7.57;;;3.55;;
54539;SDS011;40438;52.992;18.604;2023-03-31T10:18:40;10.45;;;3.42;;
54539;SDS011;40438;52.992;18.604;2023-03-31T10:21:15;8.95;;;3.80;;
54539;SDS011;40438;52.992;18.604;2023-03-31T10:23:45;9.30;;;3.78;;
54539;SDS011;40438;52.992;18.604;2023-03-31T10:26:12;13.30;;;3.83;;
54539;SDS011;40438;52.992;18.604;2023-03-31T10:28:41;9.95;;;3.92;;
54539;SDS011;40438;52.992;18.604;2023-03-31T10:31:07;9.23;;;3.72;;
54539;SDS011;40438;52.992;18.604;2023-03-31T10:33:33;11.50;;;4.32;;
54539;SDS011;40438;52.992;18.604;2023-03-31T10:36:11;10.02;;;3.60;;
54539;SDS011;40438;52.992;18.604;2023-03-31T10:38:43;6.28;;;3.50;;
54539;SDS011;40438;52.992;18.604;2023-03-31T10:41:11;8.27;;;4.13;;
54539;SDS011;40438;52.992;18.604;2023-03-31T10:43:46;15.98;;;4.05;;
54539;SDS011;40438;52.992;18.604;2023-03-31T10:46:14;13.70;;;4.60;;
54539;SDS011;40438;52.992;18.604;2023-03-31T10:48:41;8.07;;;3.40;;
54539;SDS011;40438;52.992;18.604;2023-03-31T10:51:10;8.10;;;3.60;;
54539;SDS011;40438;52.992;18.604;2023-03-31T10:53:40;9.48;;;3.83;;
54539;SDS011;40438;52.992;18.604;2023-03-31T10:56:11;6.40;;;3.28;;
54539;SDS011;40438;52.992;18.604;2023-03-31T10:58:53;8.63;;;3.30;;
54539;SDS011;40438;52.992;18.604;2023-03-31T11:01:32;13.70;;;4.72;;
54539;SDS011;40438;52.992;18.604;2023-03-31T11:04:19;12.55;;;4.05;;
54539;SDS011;40438;52.992;18.604;2023-03-31T11:06:55;11.15;;;3.50;;
54539;SDS011;40438;52.992;18.604;2023-03-31T11:09:33;9.23;;;3.70;;
54539;SDS011;40438;52.992;18.604;2023-03-31T11:12:08;10.20;;;3.65;;
54539;SDS011;40438;52.992;18.604;2023-03-31T11:14:45;14.57;;;6.65;;
54539;SDS011;40438;52.992;18.604;2023-03-31T11:17:26;11.43;;;6.80;;
54539;SDS011;40438;52.992;18.604;2023-03-31T11:20:09;12.75;;;6.60;;
54539;SDS011;40438;52.992;18.604;2023-03-31T11:22:43;10.38;;;7.32;;
54539;SDS011;40438;52.992;18.604;2023-03-31T11:25:25;10.48;;;7.10;;
54539;SDS011;40438;52.992;18.604;2023-03-31T11:28:13;13.65;;;6.95;;
54539;SDS011;40438;52.992;18.604;2023-03-31T11:31:09;12.65;;;7.22;;
54539;SDS011;40438;52.992;18.604;2023-03-31T11:33:58;13.43;;;6.85;;
54539;SDS011;40438;52.992;18.604;2023-03-31T11:36:38;11.48;;;6.93;;
54539;SDS011;40438;52.992;18.604;2023-03-31T11:39:21;12.05;;;5.80;;
54539;SDS011;40438;52.992;18.604;2023-03-31T11:41:56;9.68;;;5.43;;
54539;SDS011;40438;52.992;18.604;2023-03-31T11:44:24;11.70;;;5.43;;
54539;SDS011;40438;52.992;18.604;2023-03-31T11:46:53;9.45;;;5.05;;
54539;SDS011;40438;52.992;18.604;2023-03-31T11:49:23;8.75;;;5.00;;
54539;SDS011;40438;52.992;18.604;2023-03-31T11:51:53;10.40;;;5.55;;
54539;SDS011;40438;52.992;18.604;2023-03-31T11:54:23;8.40;;;5.05;;
54539;SDS011;40438;52.992;18.604;2023-03-31T11:56:53;5.90;;;4.17;;
54539;SDS011;40438;52.992;18.604;2023-03-31T11:59:20;7.97;;;5.22;;
54539;SDS011;40438;52.992;18.604;2023-03-31T12:01:50;5.85;;;4.45;;
54539;SDS011;40438;52.992;18.604;2023-03-31T12:06:53;10.10;;;4.50;;
54539;SDS011;40438;52.992;18.604;2023-03-31T12:09:26;8.07;;;4.38;;
54539;SDS011;40438;52.992;18.604;2023-03-31T12:11:56;6.78;;;4.00;;
54539;SDS011;40438;52.992;18.604;2023-03-31T12:14:29;7.50;;;4.05;;
54539;SDS011;40438;52.992;18.604;2023-03-31T12:16:59;9.10;;;4.22;;
54539;SDS011;40438;52.992;18.604;2023-03-31T12:19:31;6.95;;;4.22;;
54539;SDS011;40438;52.992;18.604;2023-03-31T12:22:03;6.90;;;3.80;;
54539;SDS011;40438;52.992;18.604;2023-03-31T12:24:34;8.43;;;4.07;;
54539;SDS011;40438;52.992;18.604;2023-03-31T12:27:02;6.15;;;3.83;;
54539;SDS011;40438;52.992;18.604;2023-03-31T12:29:32;7.22;;;4.13;;
54539;SDS011;40438;52.992;18.604;2023-03-31T12:32:02;7.55;;;3.88;;
54539;SDS011;40438;52.992;18.604;2023-03-31T12:34:31;5.50;;;3.55;;
54539;SDS011;40438;52.992;18.604;2023-03-31T12:37:13;7.70;;;3.88;;
54539;SDS011;40438;52.992;18.604;2023-03-31T12:40:00;6.93;;;3.05;;
54539;SDS011;40438;52.992;18.604;2023-03-31T12:42:37;5.50;;;2.95;;
54539;SDS011;40438;52.992;18.604;2023-03-31T12:45:13;7.13;;;3.10;;
54539;SDS011;40438;52.992;18.604;2023-03-31T12:47:52;4.05;;;2.92;;
54539;SDS011;40438;52.992;18.604;2023-03-31T12:50:56;6.68;;;3.05;;
54539;SDS011;40438;52.992;18.604;2023-03-31T12:53:35;8.43;;;3.17;;
54539;SDS011;40438;52.992;18.604;2023-03-31T12:56:07;4.07;;;2.75;;
54539;SDS011;40438;52.992;18.604;2023-03-31T12:58:43;6.93;;;2.75;;
54539;SDS011;40438;52.992;18.604;2023-03-31T13:01:10;9.63;;;2.92;;
54539;SDS011;40438;52.992;18.604;2023-03-31T13:03:42;6.25;;;2.60;;
54539;SDS011;40438;52.992;18.604;2023-03-31T13:12:17;4.00;;;2.70;;
54539;SDS011;40438;52.992;18.604;2023-03-31T13:14:45;4.68;;;2.95;;
54539;SDS011;40438;52.992;18.604;2023-03-31T13:17:17;3.72;;;2.55;;
54539;SDS011;40438;52.992;18.604;2023-03-31T13:19:48;4.05;;;2.70;;
54539;SDS011;40438;52.992;18.604;2023-03-31T13:22:31;4.15;;;2.70;;
54539;SDS011;40438;52.992;18.604;2023-03-31T13:28:23;4.43;;;2.88;;
54539;SDS011;40438;52.992;18.604;2023-03-31T13:30:56;4.88;;;2.72;;
54539;SDS011;40438;52.992;18.604;2023-03-31T13:36:12;4.85;;;2.92;;
54539;SDS011;40438;52.992;18.604;2023-03-31T13:38:49;4.10;;;2.67;;
54539;SDS011;40438;52.992;18.604;2023-03-31T13:41:28;9.07;;;2.90;;
54539;SDS011;40438;52.992;18.604;2023-03-31T13:44:07;5.28;;;3.20;;
54539;SDS011;40438;52.992;18.604;2023-03-31T13:46:50;8.68;;;2.78;;
54539;SDS011;40438;52.992;18.604;2023-03-31T13:49:46;4.65;;;3.10;;
54539;SDS011;40438;52.992;18.604;2023-03-31T13:52:19;5.38;;;2.90;;
54539;SDS011;40438;52.992;18.604;2023-03-31T13:55:05;5.03;;;2.90;;
54539;SDS011;40438;52.992;18.604;2023-03-31T14:00:50;6.78;;;2.95;;
54539;SDS011;40438;52.992;18.604;2023-03-31T14:03:26;5.53;;;3.17;;
54539;SDS011;40438;52.992;18.604;2023-03-31T14:06:02;6.65;;;3.20;;
54539;SDS011;40438;52.992;18.604;2023-03-31T14:08:40;6.95;;;2.92;;
54539;SDS011;40438;52.992;18.604;2023-03-31T14:11:15;6.82;;;2.85;;
54539;SDS011;40438;52.992;18.604;2023-03-31T14:13:43;11.88;;;3.10;;
54539;SDS011;40438;52.992;18.604;2023-03-31T14:16:10;6.63;;;2.92;;
54539;SDS011;40438;52.992;18.604;2023-03-31T14:18:39;10.43;;;3.08;;
54539;SDS011;40438;52.992;18.604;2023-03-31T14:21:15;11.82;;;3.45;;
54539;SDS011;40438;52.992;18.604;2023-03-31T14:23:48;4.40;;;2.67;;
54539;SDS011;40438;52.992;18.604;2023-03-31T14:26:29;8.27;;;2.67;;
54539;SDS011;40438;52.992;18.604;2023-03-31T14:29:09;11.10;;;2.70;;
54539;SDS011;40438;52.992;18.604;2023-03-31T14:31:44;7.40;;;2.67;;
54539;SDS011;40438;52.992;18.604;2023-03-31T14:34:17;6.07;;;2.33;;
54539;SDS011;40438;52.992;18.604;2023-03-31T14:36:58;3.85;;;2.40;;
54539;SDS011;40438;52.992;18.604;2023-03-31T14:39:26;5.68;;;2.40;;
54539;SDS011;40438;52.992;18.604;2023-03-31T14:41:55;6.45;;;2.80;;
54539;SDS011;40438;52.992;18.604;2023-03-31T14:44:24;8.38;;;2.58;;
54539;SDS011;40438;52.992;18.604;2023-03-31T14:46:51;4.85;;;2.13;;
54539;SDS011;40438;52.992;18.604;2023-03-31T14:49:24;6.07;;;2.60;;
54539;SDS011;40438;52.992;18.604;2023-03-31T14:51:50;5.50;;;2.40;;
54539;SDS011;40438;52.992;18.604;2023-03-31T14:54:18;4.00;;;2.65;;
54539;SDS011;40438;52.992;18.604;2023-03-31T14:56:45;5.75;;;2.75;;
54539;SDS011;40438;52.992;18.604;2023-03-31T14:59:13;5.45;;;2.55;;
54539;SDS011;40438;52.992;18.604;2023-03-31T15:01:45;9.68;;;2.67;;
54539;SDS011;40438;52.992;18.604;2023-03-31T15:04:14;5.05;;;2.30;;
54539;SDS011;40438;52.992;18.604;2023-03-31T15:06:44;9.20;;;2.47;;
54539;SDS011;40438;52.992;18.604;2023-03-31T15:09:13;5.10;;;2.47;;
54539;SDS011;40438;52.992;18.604;2023-03-31T15:11:44;6.63;;;2.63;;
54539;SDS011;40438;52.992;18.604;2023-03-31T15:14:11;6.85;;;2.00;;
54539;SDS011;40438;52.992;18.604;2023-03-31T15:16:37;7.05;;;2.03;;